Time;durP1;ratioP1;P1;durP2;ratioP2;P2;SDS_P1;SDS_P2;PMS_P1;PMS_P2;Temp;Humidity;BMP_temperature;BMP_pressure;BME280_temperature;BME280_humidity;BME280_pressure;Samples;Min_cycle;Max_cycle;Signal;HPM_P1;HPM_P2
2022/04/20 00:00:34;;;;;;;3.43;3.13;;;7.00;99.90;;;;;;4964043;28;20205;-69
2022/04/20 00:03:01;;;;;;;5.63;3.23;;;7.00;99.90;;;;;;4973022;28;20212;-68
2022/04/20 00:05:32;;;;;;;3.83;3.17;;;7.00;99.90;;;;;;4974763;28;20208;-67
2022/04/20 00:07:59;;;;;;;3.47;3.17;;;7.00;99.90;;;;;;4967856;28;20264;-66
2022/04/20 00:10:25;;;;;;;3.17;2.67;;;7.00;99.90;;;;;;4971176;28;20718;-66
2022/04/20 00:12:52;;;;;;;3.73;3.33;;;7.00;99.90;;;;;;4961241;28;20298;-66
2022/04/20 00:15:19;;;;;;;3.40;2.97;;;7.00;99.90;;;;;;4973594;28;20295;-67
2022/04/20 00:17:46;;;;;;;3.77;3.37;;;7.00;99.90;;;;;;4960096;28;20747;-67
2022/04/20 00:20:13;;;;;;;3.87;3.40;;;7.00;99.90;;;;;;4961835;28;20293;-67
2022/04/20 00:22:41;;;;;;;4.13;3.53;;;7.00;99.90;;;;;;4967468;28;20247;-68
2022/04/20 00:25:09;;;;;;;3.93;3.30;;;7.00;99.90;;;;;;4960144;28;20215;-68
2022/04/20 00:27:36;;;;;;;4.37;3.10;;;7.00;99.90;;;;;;4968489;28;20241;-67
2022/04/20 00:30:04;;;;;;;4.63;3.43;;;7.00;99.90;;;;;;4965805;28;20287;-67
2022/04/20 00:32:31;;;;;;;4.23;3.30;;;7.00;99.90;;;;;;4976715;28;20213;-67
2022/04/20 00:34:58;;;;;;;3.77;3.27;;;7.00;99.90;;;;;;4959013;28;20647;-67
2022/04/20 00:37:25;;;;;;;4.23;3.73;;;7.00;99.90;;;;;;4964920;28;20215;-67
2022/04/20 00:39:54;;;;;;;4.67;3.50;;;7.00;99.90;;;;;;4961323;28;20232;-66
2022/04/20 00:42:23;;;;;;;4.83;4.10;;;7.00;99.90;;;;;;4969059;28;20217;-67
2022/04/20 00:44:51;;;;;;;4.37;3.50;;;7.00;99.90;;;;;;4962844;28;20204;-66
2022/04/20 00:47:19;;;;;;;5.13;3.93;;;7.00;99.90;;;;;;4965306;28;20219;-66
2022/04/20 00:49:48;;;;;;;5.30;3.97;;;6.90;99.90;;;;;;4964240;28;20305;-67
2022/04/20 00:52:15;;;;;;;4.37;3.77;;;6.90;99.90;;;;;;4972944;28;20209;-68
2022/04/20 00:54:42;;;;;;;3.90;3.50;;;6.90;99.90;;;;;;4966212;28;20694;-67
2022/04/20 00:57:12;;;;;;;3.93;3.60;;;7.00;99.90;;;;;;4957313;28;20311;-66
2022/04/20 00:59:40;;;;;;;5.30;3.67;;;7.00;99.90;;;;;;4962030;28;20213;-66
2022/04/20 01:02:07;;;;;;;4.27;3.87;;;7.00;99.90;;;;;;4964377;28;20209;-65
2022/04/20 01:04:34;;;;;;;6.40;4.07;;;6.90;99.90;;;;;;4966030;28;20208;-65
2022/04/20 01:07:09;;;;;;;4.23;3.83;;;6.90;99.90;;;;;;4958215;28;20212;-65
2022/04/20 01:09:36;;;;;;;4.30;3.90;;;6.90;99.90;;;;;;4963037;28;20287;-66
2022/04/20 01:12:03;;;;;;;5.70;4.17;;;6.90;99.90;;;;;;4964746;28;20217;-66
2022/04/20 01:14:32;;;;;;;4.80;4.23;;;6.90;99.90;;;;;;4964263;28;20580;-66
2022/04/20 01:16:58;;;;;;;4.93;4.40;;;6.90;99.90;;;;;;4958092;28;20710;-65
2022/04/20 01:19:33;;;;;;;4.90;4.40;;;6.90;99.90;;;;;;4965752;28;20245;-65
2022/04/20 01:22:01;;;;;;;5.20;4.70;;;7.00;99.90;;;;;;4957386;28;20230;-66
2022/04/20 01:24:28;;;;;;;5.63;4.67;;;7.00;99.90;;;;;;4958910;28;20816;-65
2022/04/20 01:26:54;;;;;;;5.17;4.67;;;7.00;99.90;;;;;;4956773;28;20213;-64
2022/04/20 01:29:22;;;;;;;7.03;4.50;;;7.00;99.90;;;;;;4970223;28;20240;-65
2022/04/20 01:31:49;;;;;;;7.10;5.23;;;7.00;99.90;;;;;;4957481;28;20239;-66
2022/04/20 01:34:16;;;;;;;5.80;4.90;;;7.00;99.90;;;;;;4956196;28;20312;-65
2022/04/20 01:36:43;;;;;;;7.03;5.00;;;7.00;99.90;;;;;;4971785;28;20300;-65
2022/04/20 01:39:11;;;;;;;6.07;4.63;;;7.00;99.90;;;;;;4962721;28;20237;-64
2022/04/20 01:41:38;;;;;;;5.80;5.07;;;7.00;99.90;;;;;;4956389;28;20255;-65
2022/04/20 01:44:06;;;;;;;5.50;4.47;;;7.00;99.90;;;;;;4964333;28;20665;-65
2022/04/20 01:46:33;;;;;;;5.33;4.83;;;7.00;99.90;;;;;;4959456;28;20579;-66
2022/04/20 01:49:01;;;;;;;5.70;4.80;;;7.00;99.90;;;;;;4966166;28;20212;-65
2022/04/20 01:54:14;;;;;;;5.27;4.77;;;7.00;99.90;;;;;;4956181;28;20208;-64
2022/04/20 01:56:41;;;;;;;6.70;4.97;;;6.90;99.90;;;;;;4957633;28;20308;-65
2022/04/20 01:59:09;;;;;;;6.30;5.13;;;6.90;99.90;;;;;;4959265;28;20217;-64
2022/04/20 02:04:19;;;;;;;7.37;4.53;;;6.90;99.90;;;;;;4957033;28;20677;-65
2022/04/20 02:06:46;;;;;;;7.77;5.60;;;7.00;99.90;;;;;;4959034;28;20245;-65
2022/04/20 02:09:15;;;;;;;5.07;4.43;;;7.00;99.90;;;;;;4969934;28;20209;-65
2022/04/20 02:11:41;;;;;;;8.07;4.90;;;7.00;99.90;;;;;;4955983;28;20213;-65
2022/04/20 02:14:08;;;;;;;6.47;4.77;;;7.00;99.90;;;;;;4964796;28;20305;-65
2022/04/20 02:16:36;;;;;;;5.87;5.10;;;7.00;99.90;;;;;;4956296;28;20269;-65
2022/04/20 02:19:04;;;;;;;5.67;4.93;;;7.00;99.90;;;;;;4955836;28;20221;-65
2022/04/20 02:21:31;;;;;;;5.17;4.67;;;7.00;99.90;;;;;;4961554;28;20224;-65
2022/04/20 02:23:58;;;;;;;6.53;5.13;;;7.00;99.90;;;;;;4963353;28;20674;-65
2022/04/20 02:26:26;;;;;;;4.93;4.50;;;7.00;99.90;;;;;;4958290;28;20205;-64
2022/04/20 02:28:53;;;;;;;5.57;4.90;;;7.00;99.90;;;;;;4954911;28;20206;-64
2022/04/20 02:31:20;;;;;;;5.37;4.87;;;7.00;99.90;;;;;;4969716;28;20518;-64
2022/04/20 02:33:47;;;;;;;5.23;4.73;;;6.90;99.90;;;;;;4972169;28;20287;-65
2022/04/20 02:36:14;;;;;;;6.87;5.23;;;6.90;99.90;;;;;;4965158;28;20216;-65
2022/04/20 02:38:41;;;;;;;7.00;5.10;;;6.90;99.90;;;;;;4966315;28;20292;-64
2022/04/20 02:41:09;;;;;;;6.83;4.93;;;6.90;99.90;;;;;;4955225;28;20802;-64
2022/04/20 02:43:37;;;;;;;5.30;4.77;;;6.90;99.90;;;;;;4955067;28;20252;-65
2022/04/20 02:46:04;;;;;;;5.23;4.73;;;6.90;99.90;;;;;;4954986;28;20725;-64
2022/04/20 02:48:31;;;;;;;5.30;4.67;;;6.80;99.90;;;;;;4958283;28;20204;-66
2022/04/20 02:50:58;;;;;;;6.53;5.27;;;6.80;99.90;;;;;;4958224;28;20563;-64
2022/04/20 02:53:25;;;;;;;5.17;4.67;;;6.80;99.90;;;;;;4961329;28;20215;-65
2022/04/20 02:55:52;;;;;;;5.03;4.53;;;6.80;99.90;;;;;;4965566;28;20213;-66
2022/04/20 02:58:19;;;;;;;5.30;4.80;;;6.80;99.90;;;;;;4954812;28;20296;-66
2022/04/20 03:00:48;;;;;;;4.93;4.50;;;6.80;99.90;;;;;;4960640;28;20237;-65
2022/04/20 03:03:15;;;;;;;5.30;4.80;;;6.80;99.90;;;;;;4965958;28;20243;-66
2022/04/20 03:05:41;;;;;;;5.00;4.50;;;6.80;99.90;;;;;;4955491;28;20220;-64
2022/04/20 03:08:08;;;;;;;5.83;4.70;;;6.70;99.90;;;;;;4961731;28;20213;-65
2022/04/20 03:10:36;;;;;;;5.27;4.60;;;6.70;99.90;;;;;;4967738;28;20304;-65
2022/04/20 03:13:02;;;;;;;4.70;4.30;;;6.80;99.90;;;;;;4960882;28;20725;-64
2022/04/20 03:15:29;;;;;;;5.57;5.00;;;6.70;99.90;;;;;;4961250;28;20233;-65
2022/04/20 03:17:58;;;;;;;4.80;4.40;;;6.80;99.90;;;;;;4971342;28;20213;-65
2022/04/20 03:20:25;;;;;;;4.93;4.37;;;6.80;99.90;;;;;;4966200;28;20633;-64
2022/04/20 03:22:51;;;;;;;4.67;4.27;;;6.80;99.90;;;;;;4970804;28;20215;-65
2022/04/20 03:25:18;;;;;;;5.47;4.43;;;6.80;99.90;;;;;;4967192;28;20212;-64
2022/04/20 03:27:45;;;;;;;4.40;3.70;;;6.80;99.90;;;;;;4959527;28;20646;-65
2022/04/20 03:30:14;;;;;;;5.33;4.50;;;6.80;99.90;;;;;;4965146;28;20725;-64
2022/04/20 03:32:41;;;;;;;4.23;3.83;;;6.80;99.90;;;;;;4961906;28;20576;-66
2022/04/20 03:35:10;;;;;;;4.93;4.20;;;6.80;99.90;;;;;;4954862;28;20209;-64
2022/04/20 03:37:37;;;;;;;4.37;3.80;;;6.80;99.90;;;;;;4965890;28;20563;-65
2022/04/20 03:40:08;;;;;;;5.30;4.83;;;6.80;99.90;;;;;;4954875;28;20665;-64
2022/04/20 03:42:34;;;;;;;4.30;3.90;;;6.80;99.90;;;;;;4961596;28;20264;-66
2022/04/20 03:45:01;;;;;;;5.97;4.20;;;6.80;99.90;;;;;;4955027;28;20241;-64
2022/04/20 03:47:28;;;;;;;3.67;3.30;;;6.90;99.90;;;;;;4961055;28;20641;-65
2022/04/20 03:49:55;;;;;;;4.13;3.33;;;6.90;99.90;;;;;;4967336;28;20239;-65
2022/04/20 03:52:23;;;;;;;4.43;4.03;;;6.90;99.90;;;;;;4958981;28;20674;-63
2022/04/20 03:54:50;;;;;;;4.30;3.90;;;6.90;99.90;;;;;;4957352;28;20295;-64
2022/04/20 03:57:17;;;;;;;4.50;4.10;;;6.90;99.90;;;;;;4957394;28;20222;-65
2022/04/20 03:59:44;;;;;;;4.40;4.00;;;6.90;99.90;;;;;;4963261;28;20236;-64
2022/04/20 04:02:11;;;;;;;4.30;3.90;;;6.90;99.90;;;;;;4968582;28;20212;-63
2022/04/20 04:04:38;;;;;;;3.87;3.47;;;6.90;99.90;;;;;;4967985;28;20213;-64
2022/04/20 04:07:05;;;;;;;3.40;3.13;;;6.90;99.90;;;;;;4965103;28;20323;-65
2022/04/20 04:09:33;;;;;;;3.73;3.33;;;6.90;99.90;;;;;;4971508;28;20208;-63
2022/04/20 04:12:00;;;;;;;8.67;7.20;;;6.90;99.90;;;;;;4973508;28;20204;-64
2022/04/20 04:14:27;;;;;;;5.10;4.60;;;6.90;99.90;;;;;;4958510;28;20296;-63
2022/04/20 04:16:54;;;;;;;4.63;3.93;;;6.90;99.90;;;;;;4964493;28;20524;-64
2022/04/20 04:19:20;;;;;;;4.63;4.23;;;6.90;99.90;;;;;;4964303;28;20236;-65
2022/04/20 04:21:48;;;;;;;4.27;3.93;;;7.00;99.90;;;;;;4957660;28;20241;-64
2022/04/20 04:26:58;;;;;;;4.50;4.10;;;7.10;99.90;;;;;;4963636;28;20205;-64
2022/04/20 04:29:24;;;;;;;4.47;3.90;;;7.00;99.90;;;;;;4963665;28;20295;-65
2022/04/20 04:31:51;;;;;;;4.37;3.97;;;7.10;99.90;;;;;;4967101;28;20249;-65
2022/04/20 04:34:18;;;;;;;4.70;4.30;;;7.10;99.90;;;;;;4970767;28;20233;-64
2022/04/20 04:36:45;;;;;;;4.57;4.17;;;7.10;99.90;;;;;;4963082;28;20635;-65
2022/04/20 04:39:13;;;;;;;5.67;4.13;;;7.20;99.90;;;;;;4964627;28;20200;-64
2022/04/20 04:41:42;;;;;;;3.73;3.43;;;7.30;99.90;;;;;;4959181;28;20205;-63
2022/04/20 04:44:10;;;;;;;4.40;4.00;;;7.30;99.90;;;;;;4962138;28;20580;-65
2022/04/20 04:49:21;;;;;;;5.37;3.63;;;7.40;99.90;;;;;;4973632;28;20211;-66
2022/04/20 04:51:48;;;;;;;4.17;3.37;;;7.40;99.90;;;;;;4958606;28;20260;-63
2022/04/20 04:54:15;;;;;;;4.20;3.80;;;7.40;99.90;;;;;;4961671;28;20301;-64
2022/04/20 04:56:42;;;;;;;3.83;3.30;;;7.40;99.90;;;;;;4963253;28;20248;-64
2022/04/20 04:59:10;;;;;;;4.50;3.87;;;7.50;99.90;;;;;;4959742;28;20391;-65
2022/04/20 05:01:37;;;;;;;3.97;3.57;;;7.50;99.90;;;;;;4958414;28;20232;-64
2022/04/20 05:04:05;;;;;;;5.37;4.13;;;7.50;99.90;;;;;;4957025;28;20245;-65
2022/04/20 05:06:32;;;;;;;3.90;3.53;;;7.50;99.90;;;;;;4957444;28;20232;-64
2022/04/20 05:08:59;;;;;;;6.17;5.03;;;7.50;99.90;;;;;;4962922;28;20209;-65
2022/04/20 05:11:26;;;;;;;5.93;4.70;;;7.60;99.90;;;;;;4970641;28;20296;-65
2022/04/20 05:13:53;;;;;;;5.20;4.70;;;7.60;99.90;;;;;;4959921;28;20210;-66
2022/04/20 05:16:21;;;;;;;14.43;5.23;;;7.60;99.90;;;;;;4971550;28;20220;-66
2022/04/20 05:18:49;;;;;;;7.77;4.10;;;7.70;99.90;;;;;;4974020;28;20316;-64
2022/04/20 05:21:15;;;;;;;4.30;3.90;;;7.60;99.90;;;;;;4956784;28;20674;-65
2022/04/20 05:23:42;;;;;;;4.70;4.27;;;7.60;99.90;;;;;;4959206;28;20299;-65
2022/04/20 05:26:09;;;;;;;4.40;4.00;;;7.60;99.90;;;;;;4969780;28;20594;-65
2022/04/20 05:28:36;;;;;;;6.03;3.80;;;7.60;99.90;;;;;;4957304;28;20284;-64
2022/04/20 05:31:03;;;;;;;4.30;3.90;;;7.60;99.90;;;;;;4967753;28;20295;-65
2022/04/20 05:33:31;;;;;;;3.87;3.57;;;7.70;99.90;;;;;;4962101;28;20205;-65
2022/04/20 05:35:58;;;;;;;3.60;3.07;;;7.60;99.90;;;;;;4956576;28;20245;-67
2022/04/20 05:44:02;;;;;;;3.50;3.13;;;7.60;99.90;;;;;;4973906;28;20211;-65
2022/04/20 05:46:29;;;;;;;4.20;3.80;;;7.60;99.90;;;;;;4971693;28;20336;-65
2022/04/20 05:48:57;;;;;;;4.47;3.93;;;7.70;99.90;;;;;;4972908;28;20295;-65
2022/04/20 05:51:24;;;;;;;4.43;3.43;;;7.60;99.90;;;;;;4964391;28;20208;-68
2022/04/20 05:53:51;;;;;;;3.77;3.47;;;7.60;99.90;;;;;;4967494;28;20292;-65
2022/04/20 05:56:18;;;;;;;4.57;3.73;;;7.60;99.90;;;;;;4967991;28;20686;-66
2022/04/20 05:58:47;;;;;;;4.33;3.87;;;7.60;99.90;;;;;;4966821;28;20248;-65
2022/04/20 06:01:14;;;;;;;3.97;3.67;;;7.70;99.90;;;;;;4968966;28;20233;-65
2022/04/20 06:03:41;;;;;;;5.40;3.87;;;7.70;99.90;;;;;;4969608;28;20786;-66
2022/04/20 06:06:09;;;;;;;4.90;3.20;;;7.70;99.90;;;;;;4967697;28;20641;-64
2022/04/20 06:08:36;;;;;;;4.43;3.57;;;7.70;99.90;;;;;;4968523;28;20296;-66
2022/04/20 06:11:04;;;;;;;3.57;3.20;;;7.80;99.90;;;;;;4973735;28;20279;-64
2022/04/20 06:13:32;;;;;;;3.57;3.27;;;7.70;99.90;;;;;;4970417;28;20275;-68
2022/04/20 06:15:59;;;;;;;3.30;3.00;;;7.80;99.90;;;;;;4969210;28;20209;-64
2022/04/20 06:18:26;;;;;;;3.93;2.73;;;7.80;99.90;;;;;;4954598;28;20652;-64
2022/04/20 06:20:53;;;;;;;4.40;3.10;;;7.80;99.90;;;;;;4957440;28;20694;-65
2022/04/20 06:23:22;;;;;;;3.33;3.00;;;7.90;99.90;;;;;;4960122;28;20671;-65
2022/04/20 06:25:50;;;;;;;3.43;2.90;;;7.90;99.90;;;;;;4970144;28;20204;-66
2022/04/20 06:28:16;;;;;;;4.67;3.03;;;7.90;99.90;;;;;;4965379;28;20216;-67
2022/04/20 06:30:43;;;;;;;3.80;2.63;;;8.00;99.90;;;;;;4961341;28;20738;-68
2022/04/20 06:33:10;;;;;;;3.77;2.60;;;8.00;99.90;;;;;;4974252;28;20671;-66
2022/04/20 06:35:37;;;;;;;3.00;2.70;;;8.00;99.90;;;;;;4965621;28;20243;-66
2022/04/20 06:38:04;;;;;;;4.07;3.00;;;8.10;99.90;;;;;;4971301;28;20218;-66
2022/04/20 06:40:32;;;;;;;3.60;2.57;;;8.10;99.90;;;;;;4961426;28;20735;-67
2022/04/20 06:42:59;;;;;;;4.53;3.27;;;8.20;99.90;;;;;;4966585;28;20217;-67
2022/04/20 06:45:26;;;;;;;3.43;3.03;;;8.20;99.90;;;;;;4960136;28;20370;-68
2022/04/20 06:47:53;;;;;;;2.87;2.57;;;8.20;99.90;;;;;;4955936;28;20209;-68
2022/04/20 06:50:20;;;;;;;3.83;2.40;;;8.20;99.90;;;;;;4956010;28;20652;-67
2022/04/20 06:58:38;;;;;;;7.50;3.57;;;8.40;99.90;;;;;;4961411;28;20283;-67
2022/04/20 07:01:07;;;;;;;4.33;3.50;;;8.40;99.90;;;;;;4958142;28;20229;-66
2022/04/20 07:03:35;;;;;;;4.00;3.30;;;8.40;99.90;;;;;;4971892;28;20230;-65
2022/04/20 07:06:03;;;;;;;4.37;3.60;;;8.40;99.90;;;;;;4966852;28;20284;-64
2022/04/20 07:08:30;;;;;;;3.60;2.90;;;8.40;99.90;;;;;;4965841;28;20229;-64
2022/04/20 07:10:59;;;;;;;3.93;3.20;;;8.40;99.90;;;;;;4966060;28;20291;-64
2022/04/20 07:13:26;;;;;;;4.50;3.53;;;8.30;99.90;;;;;;4970957;28;20299;-65
2022/04/20 07:15:53;;;;;;;5.83;4.43;;;8.30;99.90;;;;;;4959437;28;20303;-65
2022/04/20 07:18:20;;;;;;;4.90;3.97;;;8.30;99.90;;;;;;4966932;28;20288;-65
2022/04/20 07:20:47;;;;;;;5.70;3.90;;;8.40;99.90;;;;;;4969887;28;20751;-66
2022/04/20 07:23:14;;;;;;;4.90;3.80;;;8.40;99.90;;;;;;4958903;28;20233;-67
2022/04/20 07:25:41;;;;;;;3.83;3.20;;;8.40;99.90;;;;;;4958115;28;20292;-66
2022/04/20 07:28:10;;;;;;;4.80;3.00;;;8.50;99.90;;;;;;4956287;28;20245;-65
2022/04/20 07:30:37;;;;;;;3.37;3.03;;;8.60;99.90;;;;;;4970664;28;20304;-67
2022/04/20 07:33:04;;;;;;;3.57;3.10;;;8.60;99.90;;;;;;4970844;28;20205;-66
2022/04/20 07:35:31;;;;;;;3.20;2.90;;;8.70;99.90;;;;;;4973062;28;20727;-63
2022/04/20 07:37:58;;;;;;;4.57;4.00;;;8.90;99.90;;;;;;4965202;28;20469;-66
2022/04/20 07:40:25;;;;;;;3.97;3.03;;;9.00;99.90;;;;;;4972173;28;20260;-67
2022/04/20 07:42:54;;;;;;;3.03;2.73;;;9.10;99.90;;;;;;4965923;28;20564;-67
2022/04/20 07:45:25;;;;;;;3.13;2.60;;;9.20;99.90;;;;;;4958339;28;20202;-66
2022/04/20 07:47:54;;;;;;;3.27;2.97;;;9.30;99.90;;;;;;4958838;28;20217;-67
2022/04/20 07:50:23;;;;;;;3.50;2.73;;;9.30;99.90;;;;;;4977134;28;20225;-65
2022/04/20 07:52:53;;;;;;;4.07;3.27;;;9.40;99.90;;;;;;4969051;28;20250;-67
2022/04/20 07:55:22;;;;;;;4.57;2.87;;;9.50;99.90;;;;;;4970554;28;20288;-66
2022/04/20 07:57:50;;;;;;;4.37;3.37;;;9.60;99.90;;;;;;4958898;28;20213;-67
2022/04/20 08:00:18;;;;;;;3.40;2.87;;;9.50;99.90;;;;;;4960237;28;20205;-69
2022/04/20 08:02:47;;;;;;;3.90;2.73;;;9.50;99.90;;;;;;4966000;28;20271;-66
2022/04/20 08:05:16;;;;;;;4.00;3.60;;;9.50;99.90;;;;;;4961844;28;20679;-66
2022/04/20 08:07:44;;;;;;;4.33;3.30;;;9.40;99.90;;;;;;4972894;28;20248;-67
2022/04/20 08:10:12;;;;;;;3.53;3.23;;;9.40;99.90;;;;;;4970481;28;20205;-66
2022/04/20 08:12:40;;;;;;;3.40;3.10;;;9.40;99.90;;;;;;4972523;28;20574;-66
2022/04/20 08:15:09;;;;;;;4.00;2.97;;;9.30;99.90;;;;;;4968821;28;20226;-67
2022/04/20 08:17:36;;;;;;;3.57;3.13;;;9.20;99.90;;;;;;4970436;28;20296;-67
2022/04/20 08:20:06;;;;;;;3.53;3.23;;;9.20;99.90;;;;;;4968860;28;20205;-67
2022/04/20 08:22:33;;;;;;;3.87;3.13;;;9.20;99.90;;;;;;4976624;28;20232;-66
2022/04/20 08:25:02;;;;;;;3.83;3.43;;;9.20;99.90;;;;;;4972398;28;20647;-65
2022/04/20 08:27:30;;;;;;;5.07;3.23;;;9.10;99.90;;;;;;4969719;28;20248;-67
2022/04/20 08:29:57;;;;;;;5.03;3.00;;;9.20;99.90;;;;;;4975994;28;20216;-67
2022/04/20 08:32:24;;;;;;;4.83;3.13;;;9.20;99.90;;;;;;4975588;28;20220;-68
2022/04/20 08:34:51;;;;;;;4.53;3.40;;;9.20;99.90;;;;;;4971245;28;20577;-67
2022/04/20 08:37:20;;;;;;;3.50;3.20;;;9.30;99.90;;;;;;4970370;28;20735;-66
2022/04/20 08:39:46;;;;;;;5.13;3.90;;;9.30;99.90;;;;;;4967139;28;20335;-65
2022/04/20 08:42:17;;;;;;;4.80;4.30;;;9.30;99.90;;;;;;4964184;28;20260;-68
2022/04/20 08:44:47;;;;;;;4.70;3.80;;;9.30;99.90;;;;;;4953244;28;20557;-65
2022/04/20 08:47:20;;;;;;;4.90;4.10;;;9.30;99.90;;;;;;4970399;28;20268;-64
2022/04/20 08:49:49;;;;;;;5.27;3.83;;;9.40;99.90;;;;;;4973120;28;20618;-66
2022/04/20 08:55:04;;;;;;;3.27;2.97;;;9.40;99.90;;;;;;4977936;28;20726;-66
2022/04/20 08:57:32;;;;;;;7.35;4.80;;;9.30;99.90;;;;;;4972873;28;20468;-65
2022/04/20 09:00:00;;;;;;;4.70;3.90;;;9.30;99.90;;;;;;4968908;28;20270;-65
2022/04/20 09:02:28;;;;;;;7.40;5.85;;;9.40;99.90;;;;;;4966881;28;20945;-66
2022/04/20 09:04:55;;;;;;;5.77;4.50;;;9.40;99.90;;;;;;4960625;28;20255;-66
2022/04/20 09:07:24;;;;;;;4.17;3.70;;;9.40;99.90;;;;;;4957785;28;20620;-63
2022/04/20 09:09:51;;;;;;;5.57;4.00;;;9.50;99.90;;;;;;4966549;28;20461;-65
2022/04/20 09:12:20;;;;;;;4.57;3.67;;;9.50;99.90;;;;;;4963624;28;20627;-69
2022/04/20 09:14:50;;;;;;;3.60;2.83;;;9.50;99.90;;;;;;4962745;28;20244;-72
2022/04/20 09:17:18;;;;;;;3.80;3.50;;;9.60;99.90;;;;;;4972518;28;20216;-70
2022/04/20 09:19:46;;;;;;;3.70;3.40;;;9.60;99.90;;;;;;4957083;28;20245;-71
2022/04/20 09:22:22;;;;;;;4.67;3.83;;;9.60;99.90;;;;;;4957361;28;20324;-71
2022/04/20 09:25:04;;;;;;;4.40;3.50;;;9.60;99.90;;;;;;4960696;28;20212;-72
2022/04/20 09:27:32;;;;;;;4.07;3.40;;;9.60;99.90;;;;;;4970631;28;20701;-72
2022/04/20 09:29:59;;;;;;;5.20;3.77;;;9.60;99.90;;;;;;4957670;28;20213;-71
2022/04/20 09:32:34;;;;;;;4.70;4.20;;;9.70;99.90;;;;;;4957865;28;20686;-71
2022/04/20 09:35:03;;;;;;;6.43;3.50;;;9.70;99.90;;;;;;4961738;28;20204;-69
2022/04/20 09:37:30;;;;;;;6.60;4.70;;;9.70;99.90;;;;;;4960994;28;20276;-71
2022/04/20 09:40:01;;;;;;;6.40;4.23;;;9.70;99.90;;;;;;4969084;28;20276;-72
2022/04/20 09:42:29;;;;;;;3.97;3.57;;;9.80;99.90;;;;;;4965192;28;20229;-71
2022/04/20 09:44:59;;;;;;;4.53;3.53;;;9.70;99.90;;;;;;4959431;28;20209;-70
2022/04/20 09:50:16;;;;;;;4.77;3.80;;;9.70;99.90;;;;;;4964638;28;20327;-70
2022/04/20 09:52:44;;;;;;;4.93;3.93;;;9.60;99.90;;;;;;4961549;28;20566;-70
2022/04/20 09:55:14;;;;;;;4.67;3.97;;;9.60;99.90;;;;;;4963769;28;20214;-70
2022/04/20 09:57:41;;;;;;;4.27;3.87;;;9.60;99.90;;;;;;4962775;28;20208;-71
2022/04/20 10:00:10;;;;;;;3.80;3.40;;;9.70;99.90;;;;;;4961874;28;20239;-70
2022/04/20 10:02:38;;;;;;;4.83;4.00;;;9.80;99.90;;;;;;4966465;28;20300;-71
2022/04/20 10:05:06;;;;;;;3.83;3.43;;;9.80;99.90;;;;;;4957931;28;20301;-70
2022/04/20 10:07:35;;;;;;;5.43;3.80;;;9.80;99.90;;;;;;4968508;28;20225;-70
2022/04/20 10:10:02;;;;;;;4.77;4.00;;;9.80;99.90;;;;;;4964451;28;20336;-71
2022/04/20 10:12:32;;;;;;;4.50;4.10;;;9.80;99.90;;;;;;4970085;28;20674;-70
2022/04/20 10:17:56;;;;;;;5.47;4.00;;;9.80;99.90;;;;;;4920677;28;20202;-71
2022/04/20 10:20:25;;;;;;;5.73;4.77;;;9.90;99.90;;;;;;4964507;28;20201;-72
2022/04/20 10:22:52;;;;;;;6.07;4.60;;;9.90;99.90;;;;;;4962883;28;20228;-71
2022/04/20 10:25:20;;;;;;;5.37;4.63;;;9.80;99.90;;;;;;4966972;28;20216;-69
2022/04/20 10:28:11;;;;;;;6.87;4.73;;;9.90;99.90;;;;;;4974472;28;20205;-70
2022/04/20 10:30:52;;;;;;;5.63;4.50;;;9.90;99.90;;;;;;4973076;28;20670;-71
2022/04/20 10:33:20;;;;;;;4.80;4.30;;;10.00;99.90;;;;;;4957901;28;20200;-72
2022/04/20 10:36:01;;;;;;;7.57;4.63;;;10.10;99.90;;;;;;4965983;28;20216;-70
2022/04/20 10:38:31;;;;;;;6.07;4.63;;;10.10;99.90;;;;;;4959319;28;20210;-73
2022/04/20 10:41:02;;;;;;;6.97;5.27;;;10.20;99.90;;;;;;4959067;28;20908;-71
2022/04/20 10:43:32;;;;;;;6.70;5.17;;;10.20;99.90;;;;;;4958701;28;20202;-69
2022/04/20 10:46:08;;;;;;;7.20;5.40;;;10.30;99.90;;;;;;4971900;28;20276;-70
2022/04/20 10:48:49;;;;;;;5.10;4.50;;;10.40;99.90;;;;;;4971303;28;20719;-70
2022/04/20 10:51:18;;;;;;;6.87;5.60;;;10.40;99.90;;;;;;4961214;28;20261;-70
2022/04/20 10:53:46;;;;;;;5.87;4.70;;;10.40;99.90;;;;;;4958784;28;20622;-68
2022/04/20 10:56:13;;;;;;;5.73;4.90;;;10.40;99.90;;;;;;4956410;28;20247;-68
2022/04/20 10:59:07;;;;;;;6.07;5.20;;;10.40;99.90;;;;;;4957820;28;20212;-69
2022/04/20 11:02:08;;;;;;;7.80;4.90;;;10.40;99.90;;;;;;4958463;28;20248;-70
2022/04/20 11:04:39;;;;;;;5.90;5.33;;;10.30;99.90;;;;;;4971241;28;20256;-71
2022/04/20 11:07:24;;;;;;;5.70;5.10;;;10.30;99.90;;;;;;4968519;28;20205;-70
2022/04/20 11:10:07;;;;;;;7.30;5.10;;;10.20;99.90;;;;;;4957665;28;20285;-72
2022/04/20 11:18:47;;;;;;;6.80;4.73;;;10.20;99.90;;;;;;4934036;28;20271;-70
2022/04/20 11:21:19;;;;;;;9.10;6.70;;;10.10;99.90;;;;;;4961169;28;20313;-73
2022/04/20 11:23:50;;;;;;;6.43;5.63;;;10.10;99.90;;;;;;4968515;28;20299;-73
2022/04/20 11:26:20;;;;;;;7.40;5.50;;;10.00;99.90;;;;;;4961391;28;20232;-74
2022/04/20 11:28:48;;;;;;;7.17;5.17;;;10.10;99.90;;;;;;4965210;28;20213;-75
2022/04/20 11:31:16;;;;;;;6.03;5.43;;;10.10;99.90;;;;;;4959561;28;20302;-72
2022/04/20 11:33:45;;;;;;;6.97;5.37;;;10.20;99.90;;;;;;4958990;28;20572;-75
2022/04/20 11:36:13;;;;;;;5.47;4.87;;;10.20;99.90;;;;;;4962688;28;20221;-74
2022/04/20 11:38:42;;;;;;;8.23;6.77;;;10.20;99.90;;;;;;4961854;28;20345;-70
2022/04/20 11:41:10;;;;;;;7.60;6.60;;;10.30;99.90;;;;;;4962485;28;20237;-72
2022/04/20 11:43:38;;;;;;;7.03;6.20;;;10.30;99.90;;;;;;4961418;28;20241;-70
2022/04/20 11:46:05;;;;;;;8.30;6.57;;;10.40;99.90;;;;;;4963099;28;20323;-71
2022/04/20 11:48:35;;;;;;;6.03;5.43;;;10.40;99.90;;;;;;4976200;28;20216;-72
2022/04/20 11:51:03;;;;;;;7.30;6.33;;;10.50;99.90;;;;;;4960991;28;20209;-66
2022/04/20 11:53:33;;;;;;;6.30;5.63;;;10.50;99.90;;;;;;4967011;28;20211;-67
2022/04/20 11:56:01;;;;;;;9.50;6.30;;;10.50;99.90;;;;;;4965515;28;20265;-67
2022/04/20 11:58:28;;;;;;;8.57;6.60;;;10.50;99.90;;;;;;4958764;28;20225;-66
2022/04/20 12:01:05;;;;;;;7.90;6.83;;;10.50;99.90;;;;;;4962793;28;20213;-68
2022/04/20 12:03:36;;;;;;;7.17;6.43;;;10.50;99.90;;;;;;4963855;28;20216;-67
2022/04/20 12:06:05;;;;;;;7.23;6.20;;;10.50;99.90;;;;;;4958578;28;20220;-67
2022/04/20 12:08:33;;;;;;;7.13;6.43;;;10.60;99.90;;;;;;4971528;28;20300;-67
2022/04/20 12:11:05;;;;;;;7.17;6.47;;;10.60;99.90;;;;;;4973234;28;20205;-67
2022/04/20 12:13:32;;;;;;;7.27;6.57;;;10.60;99.90;;;;;;4957993;28;20201;-67
2022/04/20 12:16:03;;;;;;;7.20;5.87;;;10.70;99.90;;;;;;4957079;28;20213;-67
2022/04/20 12:18:32;;;;;;;7.97;5.53;;;10.70;99.90;;;;;;4963630;28;20276;-68
2022/04/20 12:21:00;;;;;;;8.47;5.20;;;10.70;99.90;;;;;;4961152;28;20232;-66
2022/04/20 12:23:33;;;;;;;8.00;7.03;;;10.60;99.90;;;;;;4963875;28;20446;-69
2022/04/20 12:26:03;;;;;;;8.33;7.20;;;10.60;99.90;;;;;;4962743;28;20205;-68
2022/04/20 12:28:41;;;;;;;8.90;6.17;;;10.60;99.90;;;;;;4966398;28;20221;-66
2022/04/20 12:31:10;;;;;;;6.67;5.77;;;10.60;99.90;;;;;;4958711;28;20689;-69
2022/04/20 12:33:38;;;;;;;7.73;5.60;;;10.50;99.90;;;;;;4960749;28;20205;-69
2022/04/20 12:36:08;;;;;;;6.03;5.37;;;10.50;99.90;;;;;;4962887;28;20227;-66
2022/04/20 12:38:45;;;;;;;8.00;6.10;;;10.50;99.90;;;;;;4959706;28;20240;-70
2022/04/20 12:41:37;;;;;;;5.93;5.33;;;10.40;99.90;;;;;;4966721;28;20315;-68
2022/04/20 12:44:19;;;;;;;9.10;5.70;;;10.30;99.90;;;;;;4961454;28;20663;-69
2022/04/20 12:46:47;;;;;;;8.97;6.10;;;10.30;99.90;;;;;;4959949;28;20212;-67
2022/04/20 12:49:23;;;;;;;7.30;6.53;;;10.30;99.90;;;;;;4962875;28;20217;-69
2022/04/20 12:51:52;;;;;;;11.17;6.93;;;10.30;99.90;;;;;;4962183;28;20235;-70
2022/04/20 12:54:24;;;;;;;9.10;6.50;;;10.30;99.90;;;;;;4962645;28;20213;-70
2022/04/20 13:02:19;;;;;;;8.93;6.23;;;10.20;99.90;;;;;;4958703;28;20276;-69
2022/04/20 13:04:50;;;;;;;8.23;6.30;;;10.20;99.90;;;;;;4964998;28;20267;-71
2022/04/20 13:07:18;;;;;;;8.67;6.00;;;10.10;99.90;;;;;;4962552;28;20641;-67
2022/04/20 13:09:45;;;;;;;7.67;6.00;;;10.10;99.90;;;;;;4957989;28;20317;-71
2022/04/20 13:12:12;;;;;;;6.27;5.67;;;10.10;99.90;;;;;;4959060;28;20301;-68
2022/04/20 13:14:39;;;;;;;8.67;6.43;;;10.00;99.90;;;;;;4957222;28;20219;-69
2022/04/20 13:17:09;;;;;;;10.60;8.00;;;10.00;99.90;;;;;;4963787;28;20216;-70
2022/04/20 13:19:37;;;;;;;11.23;8.87;;;10.00;99.90;;;;;;4962290;28;20244;-70
2022/04/20 13:22:04;;;;;;;9.13;6.97;;;10.00;99.90;;;;;;4963216;28;20554;-68
2022/04/20 13:30:01;;;;;;;8.13;6.80;;;10.00;99.90;;;;;;4959365;28;20221;-67
2022/04/20 13:32:28;;;;;;;8.10;5.90;;;10.00;99.90;;;;;;4963487;28;20236;-68
2022/04/20 13:34:55;;;;;;;6.73;5.77;;;10.00;99.90;;;;;;4960421;28;20300;-68
2022/04/20 13:37:22;;;;;;;7.30;5.73;;;10.00;99.90;;;;;;4961819;28;20208;-67
2022/04/20 13:39:50;;;;;;;8.93;5.57;;;10.00;99.90;;;;;;4963864;28;20266;-66
2022/04/20 13:42:17;;;;;;;10.80;6.47;;;10.00;99.90;;;;;;4967850;28;20229;-67
2022/04/20 13:44:44;;;;;;;7.00;6.30;;;10.00;99.90;;;;;;4971193;28;20307;-67
2022/04/20 13:47:11;;;;;;;7.87;5.77;;;10.10;99.90;;;;;;4966859;28;20213;-67
2022/04/20 13:49:38;;;;;;;6.43;5.67;;;10.10;99.90;;;;;;4968788;28;20236;-69